createdAt,value
2022-12-29T00:02:03.291Z,99649.16
2022-12-29T00:04:31.851Z,99644.81
2022-12-29T00:06:58.934Z,99657.94
2022-12-29T00:09:27.257Z,99652.34
2022-12-29T00:11:54.093Z,99653.09
2022-12-29T00:14:39.741Z,99654.03
2022-12-29T00:17:06.576Z,99663.84
2022-12-29T00:19:53.352Z,99655.88
2022-12-29T00:22:38.518Z,99657.31
2022-12-29T00:25:25.299Z,99660.97
2022-12-29T00:28:10.660Z,99666.94
2022-12-29T00:30:56.251Z,99688.75
2022-12-29T00:33:45.540Z,99670.91
2022-12-29T00:36:17.845Z,99670.31
2022-12-29T00:39:08.947Z,99663.84
2022-12-29T00:41:54.043Z,99642.63
2022-12-29T00:44:21.189Z,99659.59
2022-12-29T00:46:48.408Z,99654.28
2022-12-29T00:49:31.216Z,99652.50
2022-12-29T00:52:01.494Z,99655.69
2022-12-29T00:54:28.883Z,99656.72
2022-12-29T00:56:57.973Z,99650.31
2022-12-29T00:59:25.167Z,99656.72
2022-12-29T01:01:53.546Z,99642.75
2022-12-29T01:04:21.625Z,99650.50
2022-12-29T01:06:48.554Z,99653.69
2022-12-29T01:09:36.869Z,99641.31
2022-12-29T01:12:04.864Z,99648.22
2022-12-29T01:14:32.289Z,99648.22
2022-12-29T01:16:59.204Z,99637.84
2022-12-29T01:19:26.484Z,99639.91
2022-12-29T01:21:53.646Z,99647.31
2022-12-29T01:24:22.615Z,99648.22
2022-12-29T01:26:50.108Z,99646.84
2022-12-29T01:29:17.633Z,99635.69
2022-12-29T01:31:45.245Z,99638.88
2022-12-29T01:34:12.576Z,99640.41
2022-12-29T01:36:39.552Z,99646.00
2022-12-29T01:39:06.478Z,99647.59
2022-12-29T01:41:35.662Z,99654.94
2022-12-29T01:44:03.652Z,99646.28
2022-12-29T01:46:35.850Z,99650.03
2022-12-29T01:49:12.757Z,99654.94
2022-12-29T01:51:43.293Z,99650.97
2022-12-29T01:54:17.625Z,99655.00
2022-12-29T01:56:47.807Z,99662.88
2022-12-29T01:59:19.072Z,99650.22
2022-12-29T02:01:46.142Z,99653.34
2022-12-29T02:04:14.217Z,99646.91
2022-12-29T02:06:47.140Z,99658.03
2022-12-29T02:09:14.183Z,99665.16
2022-12-29T02:11:41.323Z,99666.50
2022-12-29T02:14:12.410Z,99686.97
2022-12-29T02:16:52.627Z,99680.22
2022-12-29T02:19:52.593Z,99683.75
2022-12-29T02:22:28.334Z,99681.44
2022-12-29T02:25:40.550Z,99687.28
2022-12-29T02:28:43.106Z,99683.53
2022-12-29T02:31:18.699Z,99669.28
2022-12-29T02:33:59.112Z,99658.47
2022-12-29T02:36:35.306Z,99651.72
2022-12-29T02:39:08.270Z,99652.88
2022-12-29T02:41:45.083Z,99648.13
2022-12-29T02:44:17.876Z,99635.44
2022-12-29T02:46:52.740Z,99637.41
2022-12-29T02:49:27.405Z,99658.22
2022-12-29T02:52:00.133Z,99651.81
2022-12-29T02:54:43.190Z,99653.19
2022-12-29T02:57:13.570Z,99645.50
2022-12-29T02:59:42.445Z,99639.81
2022-12-29T03:02:45.586Z,99646.41
2022-12-29T03:05:34.726Z,99637.31
2022-12-29T03:08:08.176Z,99634.06
2022-12-29T03:10:42.522Z,99637.59
2022-12-29T03:13:38.770Z,99640.81
2022-12-29T03:16:13.297Z,99645.94
2022-12-29T03:18:51.497Z,99635.69
2022-12-29T03:21:49.218Z,99644.56
2022-12-29T03:24:18.636Z,99652.59
2022-12-29T03:26:48.175Z,99661.75
2022-12-29T03:29:18.114Z,99669.41
2022-12-29T03:31:48.077Z,99667.75
2022-12-29T03:34:21.686Z,99674.88
2022-12-29T03:36:54.217Z,99676.78
2022-12-29T03:39:24.618Z,99671.28
2022-12-29T03:41:57.734Z,99668.13
2022-12-29T03:44:33.904Z,99661.84
2022-12-29T03:47:00.906Z,99669.00
2022-12-29T03:49:29.309Z,99673.59
2022-12-29T03:51:56.174Z,99665.22
2022-12-29T03:54:23.378Z,99660.19
2022-12-29T03:56:52.380Z,99672.94
2022-12-29T03:59:19.340Z,99669.50
2022-12-29T04:01:46.555Z,99654.69
2022-12-29T04:04:13.623Z,99656.88
2022-12-29T04:06:42.694Z,99649.56
2022-12-29T04:09:10.850Z,99665.34
2022-12-29T04:11:37.865Z,99656.16
2022-12-29T04:14:04.695Z,99661.09
2022-12-29T04:16:31.652Z,99659.50
2022-12-29T04:18:59.631Z,99662.28
2022-12-29T04:21:26.524Z,99659.16
2022-12-29T04:23:54.818Z,99667.50
2022-12-29T04:26:21.682Z,99667.41
2022-12-29T04:28:50.251Z,99685.47
2022-12-29T04:31:17.159Z,99684.03
2022-12-29T04:33:45.528Z,99683.31
2022-12-29T04:36:12.358Z,99693.72
2022-12-29T04:38:39.222Z,99693.03
2022-12-29T04:41:08.435Z,99695.19
2022-12-29T04:43:35.345Z,99696.88
2022-12-29T04:46:02.186Z,99698.78
2022-12-29T04:48:29.091Z,99703.16
2022-12-29T04:50:55.944Z,99695.72
2022-12-29T04:53:22.773Z,99696.97
2022-12-29T04:55:51.004Z,99697.69
2022-12-29T04:58:22.927Z,99683.75
2022-12-29T05:00:51.052Z,99686.44
2022-12-29T05:03:18.053Z,99686.69
2022-12-29T05:05:45.380Z,99688.69
2022-12-29T05:08:12.247Z,99685.16
2022-12-29T05:10:39.092Z,99682.66
2022-12-29T05:13:07.673Z,99679.31
2022-12-29T05:15:35.879Z,99691.66
2022-12-29T05:18:02.733Z,99696.44
2022-12-29T05:20:29.548Z,99721.25
2022-12-29T05:22:56.478Z,99706.56
2022-12-29T05:25:23.505Z,99715.84
2022-12-29T05:27:50.407Z,99706.41
2022-12-29T05:30:17.238Z,99724.31
2022-12-29T05:32:45.492Z,99726.28
2022-12-29T05:35:12.382Z,99726.75
2022-12-29T05:37:39.225Z,99731.31
2022-12-29T05:40:09.468Z,99731.56
2022-12-29T05:42:36.298Z,99732.81
2022-12-29T05:45:04.154Z,99744.28
2022-12-29T05:47:31.075Z,99746.94
2022-12-29T05:49:59.292Z,99758.81
2022-12-29T05:52:26.309Z,99769.00
2022-12-29T05:54:53.381Z,99763.88
2022-12-29T05:57:20.463Z,99747.94
2022-12-29T05:59:50.199Z,99763.16
2022-12-29T06:02:17.149Z,99766.00
2022-12-29T06:04:44.361Z,99772.97
2022-12-29T06:07:12.589Z,99761.97
2022-12-29T06:09:39.407Z,99768.19
2022-12-29T06:12:06.966Z,99766.78
2022-12-29T06:14:33.763Z,99767.31
2022-12-29T06:17:01.069Z,99763.00
2022-12-29T06:19:27.902Z,99771.00
2022-12-29T06:21:54.843Z,99783.25
2022-12-29T06:24:23.146Z,99777.38
2022-12-29T06:26:49.990Z,99783.13
2022-12-29T06:29:18.207Z,99776.13
2022-12-29T06:31:49.945Z,99789.72
2022-12-29T06:34:17.029Z,99785.41
2022-12-29T06:36:44.157Z,99772.63
2022-12-29T06:39:11.711Z,99786.00
2022-12-29T06:41:40.051Z,99785.38
2022-12-29T06:44:07.103Z,99787.06
2022-12-29T06:46:34.395Z,99781.50
2022-12-29T06:49:04.239Z,99784.13
2022-12-29T06:51:31.104Z,99786.34
2022-12-29T06:53:57.926Z,99778.16
2022-12-29T06:56:24.770Z,99783.69
2022-12-29T06:58:52.957Z,99773.09
2022-12-29T07:01:20.055Z,99778.91
2022-12-29T07:03:47.051Z,99772.91
2022-12-29T07:06:13.914Z,99782.34
2022-12-29T07:08:41.052Z,99786.94
2022-12-29T07:11:07.999Z,99784.06
2022-12-29T07:13:34.886Z,99765.44
2022-12-29T07:16:09.671Z,99771.63
2022-12-29T07:18:36.856Z,99773.34
2022-12-29T07:21:04.108Z,99780.53
2022-12-29T07:23:31.117Z,99782.25
2022-12-29T07:26:01.484Z,99777.03
2022-12-29T07:28:28.377Z,99774.69
2022-12-29T07:30:58.515Z,99779.38
2022-12-29T07:33:26.813Z,99776.59
2022-12-29T07:35:53.712Z,99780.81
2022-12-29T07:38:20.587Z,99785.50
2022-12-29T07:40:47.436Z,99798.72
2022-12-29T07:43:14.273Z,99808.91
2022-12-29T07:45:41.111Z,99820.47
2022-12-29T07:48:10.677Z,99811.38
2022-12-29T07:50:38.958Z,99816.16
2022-12-29T07:53:07.604Z,99812.91
2022-12-29T07:55:34.481Z,99824.50
2022-12-29T07:58:01.343Z,99836.00
2022-12-29T08:00:28.420Z,99839.81
2022-12-29T08:02:55.333Z,99840.78
2022-12-29T08:05:22.252Z,99830.25
2022-12-29T08:07:50.513Z,99838.50
2022-12-29T08:10:17.936Z,99831.88
2022-12-29T08:12:45.016Z,99838.16
2022-12-29T08:15:13.148Z,99850.25
2022-12-29T08:17:40.033Z,99864.72
2022-12-29T08:20:08.668Z,99853.50
2022-12-29T08:22:35.741Z,99854.66
2022-12-29T08:25:04.909Z,99850.00
2022-12-29T08:27:31.904Z,99870.06
2022-12-29T08:29:58.738Z,99885.72
2022-12-29T08:32:25.652Z,99879.59
2022-12-29T08:34:52.600Z,99896.97
2022-12-29T08:37:19.452Z,99890.38
2022-12-29T08:39:46.389Z,99900.38
2022-12-29T08:42:14.637Z,99893.16
2022-12-29T08:44:41.550Z,99901.97
2022-12-29T08:47:10.458Z,99914.97
2022-12-29T08:49:37.397Z,99902.31
2022-12-29T08:52:04.668Z,99923.31
2022-12-29T08:54:31.592Z,99929.47
2022-12-29T08:56:58.414Z,99936.75
2022-12-29T08:59:26.963Z,99934.53
2022-12-29T09:01:53.982Z,99944.81
2022-12-29T09:04:21.116Z,99939.13
2022-12-29T09:06:48.072Z,99946.31
2022-12-29T09:09:14.939Z,99952.03
2022-12-29T09:11:43.010Z,99957.03
2022-12-29T09:14:09.896Z,99956.00
2022-12-29T09:16:38.650Z,99972.78
2022-12-29T09:19:05.892Z,99960.50
2022-12-29T09:21:33.283Z,99972.19
2022-12-29T09:24:00.212Z,99987.22
2022-12-29T09:26:27.084Z,99988.56
2022-12-29T09:28:53.918Z,100014.94
2022-12-29T09:31:20.934Z,100010.00
2022-12-29T09:33:49.256Z,100019.97
2022-12-29T09:36:16.167Z,100017.78
2022-12-29T09:38:43.268Z,100026.13
2022-12-29T09:41:18.709Z,100025.03
2022-12-29T09:44:07.989Z,100027.50
2022-12-29T09:46:39.471Z,100028.63
2022-12-29T09:49:21.300Z,100044.41
2022-12-29T09:51:52.114Z,100035.53
2022-12-29T09:54:32.015Z,100040.59
2022-12-29T09:57:01.710Z,100051.66
2022-12-29T09:59:39.084Z,100052.53
2022-12-29T10:02:17.116Z,100056.41
2022-12-29T10:04:45.532Z,100054.72
2022-12-29T10:07:34.202Z,100065.75
2022-12-29T10:10:19.062Z,100062.91
2022-12-29T10:12:58.085Z,100070.78
2022-12-29T10:15:41.869Z,100076.47
2022-12-29T10:18:23.824Z,100083.38
2022-12-29T10:20:56.158Z,100083.63
2022-12-29T10:23:32.896Z,100086.19
2022-12-29T10:26:02.272Z,100082.09
2022-12-29T10:28:36.641Z,100090.03
2022-12-29T10:31:09.035Z,100085.19
2022-12-29T10:33:38.833Z,100090.28
2022-12-29T10:36:15.994Z,100098.88
2022-12-29T10:38:50.401Z,100117.88
2022-12-29T10:41:21.658Z,100107.56
2022-12-29T10:43:52.248Z,100115.75
2022-12-29T10:46:21.878Z,100128.66
2022-12-29T10:48:48.851Z,100120.88
2022-12-29T10:51:22.120Z,100122.13
2022-12-29T10:53:52.882Z,100132.03
2022-12-29T10:56:31.385Z,100143.66
2022-12-29T10:59:02.747Z,100145.66
2022-12-29T11:01:36.087Z,100139.13
2022-12-29T11:04:07.162Z,100146.69
2022-12-29T11:06:35.402Z,100139.13
2022-12-29T11:09:11.057Z,100142.84
2022-12-29T11:11:38.301Z,100147.28
2022-12-29T11:14:14.625Z,100147.03
2022-12-29T11:16:42.835Z,100150.66
2022-12-29T11:19:22.968Z,100162.81
2022-12-29T11:21:52.259Z,100154.44
2022-12-29T11:24:22.110Z,100138.00
2022-12-29T11:26:51.620Z,100151.50
2022-12-29T11:29:23.178Z,100132.88
2022-12-29T11:31:52.060Z,100148.94
2022-12-29T11:34:21.008Z,100166.97
2022-12-29T11:36:48.728Z,100162.66
2022-12-29T11:39:42.466Z,100164.94
2022-12-29T11:42:16.766Z,100172.81
2022-12-29T11:44:46.591Z,100159.69
2022-12-29T11:47:22.294Z,100167.94
2022-12-29T11:49:53.065Z,100169.22
2022-12-29T11:52:27.789Z,100168.88
2022-12-29T11:54:57.655Z,100167.03
2022-12-29T11:57:26.541Z,100171.00
2022-12-29T11:59:56.518Z,100171.34
2022-12-29T12:02:42.624Z,100175.41
2022-12-29T12:05:22.356Z,100176.56
2022-12-29T12:07:53.876Z,100177.03
2022-12-29T12:10:30.813Z,100173.59
2022-12-29T12:13:05.474Z,100179.25
2022-12-29T12:15:43.372Z,100184.41
2022-12-29T12:18:18.936Z,100183.56
2022-12-29T12:20:49.787Z,100186.19
2022-12-29T12:23:30.085Z,100178.31
2022-12-29T12:26:03.281Z,100185.16
2022-12-29T12:28:41.092Z,100186.69
2022-12-29T12:31:18.452Z,100185.34
2022-12-29T12:33:50.325Z,100195.75
2022-12-29T12:36:41.319Z,100179.03
2022-12-29T12:39:18.229Z,100194.34
2022-12-29T12:41:54.607Z,100192.81
2022-12-29T12:44:29.590Z,100205.00
2022-12-29T12:47:20.416Z,100190.09
2022-12-29T12:50:22.741Z,100195.94
2022-12-29T12:53:27.506Z,100201.13
2022-12-29T12:56:01.514Z,100197.69
2022-12-29T12:58:41.811Z,100200.72
2022-12-29T13:01:24.336Z,100199.22
2022-12-29T13:04:14.695Z,100214.69
2022-12-29T13:06:49.493Z,100220.09
2022-12-29T13:09:39.541Z,100205.47
2022-12-29T13:12:18.461Z,100207.19
2022-12-29T13:14:59.356Z,100208.59
2022-12-29T13:17:34.129Z,100217.44
2022-12-29T13:20:11.118Z,100212.91
2022-12-29T13:22:43.646Z,100213.81
2022-12-29T13:25:31.172Z,100224.13
2022-12-29T13:28:04.092Z,100204.50
2022-12-29T13:30:40.527Z,100206.47
2022-12-29T13:33:21.586Z,100209.41
2022-12-29T13:36:00.037Z,100215.09
2022-12-29T13:38:34.509Z,100223.91
2022-12-29T13:41:05.543Z,100232.50
2022-12-29T13:43:35.312Z,100243.19
2022-12-29T13:46:10.191Z,100234.00
2022-12-29T13:48:43.612Z,100247.94
2022-12-29T13:51:12.880Z,100256.63
2022-12-29T13:53:53.279Z,100265.09
2022-12-29T13:56:26.104Z,100253.31
2022-12-29T13:58:57.688Z,100258.63
2022-12-29T14:01:33.983Z,100244.91
2022-12-29T14:04:03.976Z,100247.38
2022-12-29T14:06:32.401Z,100256.44
2022-12-29T14:09:01.700Z,100254.34
2022-12-29T14:11:33.862Z,100251.91
2022-12-29T14:14:12.064Z,100252.03
2022-12-29T14:16:40.551Z,100255.19
2022-12-29T14:19:15.059Z,100264.97
2022-12-29T14:21:50.667Z,100254.63
2022-12-29T14:24:41.663Z,100264.00
2022-12-29T14:27:41.969Z,100270.75
2022-12-29T14:30:42.066Z,100270.59
2022-12-29T14:33:15.956Z,100276.16
2022-12-29T14:35:43.823Z,100272.88
2022-12-29T14:38:45.473Z,100275.44
2022-12-29T14:41:28.030Z,100275.03
2022-12-29T14:43:58.470Z,100273.31
2022-12-29T14:46:26.058Z,100278.22
2022-12-29T14:49:00.694Z,100280.25
2022-12-29T14:51:37.705Z,100272.25
2022-12-29T14:54:37.756Z,100267.16
2022-12-29T14:57:07.322Z,100278.22
2022-12-29T14:59:36.145Z,100280.72
2022-12-29T15:02:12.636Z,100282.81
2022-12-29T15:04:41.052Z,100285.41
2022-12-29T15:07:10.184Z,100281.31
2022-12-29T15:09:41.593Z,100287.31
2022-12-29T15:12:20.123Z,100301.44
2022-12-29T15:14:54.151Z,100299.03
2022-12-29T15:17:27.621Z,100309.84
2022-12-29T15:19:57.671Z,100319.00
2022-12-29T15:22:25.596Z,100305.84
2022-12-29T15:24:54.505Z,100318.31
2022-12-29T15:27:22.897Z,100316.53
2022-12-29T15:29:57.513Z,100318.28
2022-12-29T15:32:26.646Z,100331.13
2022-12-29T15:34:57.173Z,100333.81
2022-12-29T15:37:25.730Z,100329.13
2022-12-29T15:39:53.818Z,100330.41
2022-12-29T15:42:36.374Z,100340.28
2022-12-29T15:45:11.554Z,100335.28
2022-12-29T15:47:40.533Z,100327.06
2022-12-29T15:50:16.629Z,100340.22
2022-12-29T15:52:43.587Z,100341.56
2022-12-29T15:55:21.644Z,100351.56
2022-12-29T15:57:48.567Z,100360.22
2022-12-29T16:00:27.084Z,100349.00
2022-12-29T16:02:55.734Z,100351.78
2022-12-29T16:05:24.132Z,100358.50
2022-12-29T16:07:56.331Z,100356.06
2022-12-29T16:10:31.417Z,100368.72
2022-12-29T16:13:06.857Z,100362.69
2022-12-29T16:15:34.441Z,100354.53
2022-12-29T16:18:01.521Z,100360.63
2022-12-29T16:20:42.011Z,100369.44
2022-12-29T16:23:19.295Z,100361.78
2022-12-29T16:25:46.349Z,100378.59
2022-12-29T16:28:21.068Z,100373.88
2022-12-29T16:30:48.239Z,100378.59
2022-12-29T16:33:36.457Z,100372.41
2022-12-29T16:36:23.709Z,100368.97
2022-12-29T16:38:50.736Z,100383.84
2022-12-29T16:41:30.109Z,100387.78
2022-12-29T16:44:13.569Z,100386.00
2022-12-29T16:46:56.915Z,100390.72
2022-12-29T16:49:23.926Z,100394.97
2022-12-29T16:51:55.755Z,100399.03
2022-12-29T16:54:25.307Z,100400.84
2022-12-29T16:56:54.127Z,100402.66
2022-12-29T16:59:30.381Z,100402.16
2022-12-29T17:01:58.837Z,100401.66
2022-12-29T17:04:26.053Z,100413.94
2022-12-29T17:06:54.251Z,100409.19
2022-12-29T17:09:22.816Z,100400.19
2022-12-29T17:12:02.950Z,100415.25
2022-12-29T17:14:40.867Z,100420.44
2022-12-29T17:17:16.217Z,100419.94
2022-12-29T17:19:46.839Z,100424.22
2022-12-29T17:22:18.367Z,100424.53
2022-12-29T17:24:45.369Z,100427.31
2022-12-29T17:27:23.575Z,100439.75
2022-12-29T17:29:52.055Z,100430.25
2022-12-29T17:32:19.366Z,100435.81
2022-12-29T17:34:46.240Z,100431.25
2022-12-29T17:37:36.735Z,100438.56
2022-12-29T17:40:06.373Z,100451.00
2022-12-29T17:42:35.844Z,100449.50
2022-12-29T17:45:03.359Z,100451.28
2022-12-29T17:47:30.236Z,100447.06
2022-12-29T17:49:57.153Z,100454.28
2022-12-29T17:52:25.553Z,100455.59
2022-12-29T17:54:53.702Z,100452.31
2022-12-29T17:57:21.680Z,100459.84
2022-12-29T17:59:48.853Z,100457.88
2022-12-29T18:02:26.228Z,100461.31
2022-12-29T18:04:56.743Z,100458.03
2022-12-29T18:07:33.915Z,100468.50
2022-12-29T18:10:02.679Z,100466.06
2022-12-29T18:12:33.048Z,100476.34
2022-12-29T18:14:59.905Z,100478.63
2022-12-29T18:17:26.836Z,100475.19
2022-12-29T18:19:55.689Z,100472.91
2022-12-29T18:22:24.469Z,100492.19
2022-12-29T18:24:52.721Z,100487.94
2022-12-29T18:27:22.151Z,100489.09
2022-12-29T18:29:50.051Z,100505.78
2022-12-29T18:32:18.232Z,100506.28
2022-12-29T18:34:45.530Z,100503.66
2022-12-29T18:37:12.521Z,100516.88
2022-12-29T18:39:39.515Z,100521.47
2022-12-29T18:42:07.914Z,100525.72
2022-12-29T18:44:35.184Z,100519.34
2022-12-29T18:47:02.300Z,100525.38
2022-12-29T18:49:29.404Z,100529.81
2022-12-29T18:51:56.330Z,100526.69
2022-12-29T18:54:28.551Z,100530.78
2022-12-29T18:56:55.586Z,100521.94
2022-12-29T18:59:24.015Z,100532.38
2022-12-29T19:01:51.080Z,100531.72
2022-12-29T19:04:18.344Z,100537.47
2022-12-29T19:06:45.858Z,100524.38
2022-12-29T19:09:13.717Z,100529.59
2022-12-29T19:11:40.861Z,100528.59
2022-12-29T19:14:14.483Z,100540.19
2022-12-29T19:16:42.974Z,100533.47
2022-12-29T19:19:15.243Z,100532.16
2022-12-29T19:21:42.189Z,100536.38
2022-12-29T19:24:09.225Z,100540.28
2022-12-29T19:26:38.142Z,100541.28
2022-12-29T19:29:06.428Z,100537.19
2022-12-29T19:31:33.737Z,100548.59
2022-12-29T19:34:03.209Z,100549.22
2022-12-29T19:36:30.429Z,100545.34
2022-12-29T19:38:57.628Z,100545.34
2022-12-29T19:41:25.681Z,100556.75
2022-12-29T19:43:52.607Z,100562.59
2022-12-29T19:46:20.511Z,100553.16
2022-12-29T19:48:47.486Z,100558.19
2022-12-29T19:51:17.323Z,100560.81
2022-12-29T19:53:44.959Z,100562.88
2022-12-29T19:56:12.770Z,100565.53
2022-12-29T19:58:45.267Z,100563.25
2022-12-29T20:01:15.943Z,100559.97
2022-12-29T20:03:43.489Z,100565.03
2022-12-29T20:06:11.982Z,100561.91
2022-12-29T20:08:40.594Z,100567.94
2022-12-29T20:11:09.893Z,100567.63
2022-12-29T20:13:36.995Z,100575.78
2022-12-29T20:16:05.688Z,100581.81
2022-12-29T20:18:32.722Z,100591.28
2022-12-29T20:21:03.372Z,100582.94
2022-12-29T20:23:30.526Z,100579.84
2022-12-29T20:25:59.287Z,100583.25
2022-12-29T20:28:30.106Z,100579.84
2022-12-29T20:30:59.457Z,100591.16
2022-12-29T20:33:27.150Z,100588.34
2022-12-29T20:35:54.273Z,100592.44
2022-12-29T20:38:21.264Z,100583.59
2022-12-29T20:40:48.286Z,100588.38
2022-12-29T20:43:16.835Z,100593.81
2022-12-29T20:45:44.198Z,100600.19
2022-12-29T20:48:11.286Z,100598.59
2022-12-29T20:50:38.201Z,100600.69
2022-12-29T20:53:05.422Z,100602.47
2022-12-29T20:55:32.651Z,100616.22
2022-12-29T21:00:48.295Z,100608.16
2022-12-29T21:03:15.262Z,100607.59
2022-12-29T21:05:42.153Z,100607.41
2022-12-29T21:08:11.507Z,100607.56
2022-12-29T21:10:38.724Z,100615.06
2022-12-29T21:13:05.971Z,100612.97
2022-12-29T21:15:33.053Z,100613.44
2022-12-29T21:18:01.297Z,100616.97
2022-12-29T21:20:32.078Z,100620.38
2022-12-29T21:23:00.217Z,100631.28
2022-12-29T21:25:27.713Z,100626.38
2022-12-29T21:27:54.525Z,100628.16
2022-12-29T21:30:21.338Z,100638.91
2022-12-29T21:32:48.360Z,100631.72
2022-12-29T21:35:16.724Z,100620.22
2022-12-29T21:37:43.616Z,100634.00
2022-12-29T21:40:11.088Z,100636.50
2022-12-29T21:42:39.591Z,100629.91
2022-12-29T21:45:28.180Z,100632.19
2022-12-29T21:48:16.950Z,100636.41
2022-12-29T21:51:05.609Z,100633.31
2022-12-29T21:53:38.753Z,100644.31
2022-12-29T21:56:07.270Z,100645.53
2022-12-29T21:58:53.362Z,100643.91
2022-12-29T22:01:38.825Z,100650.38
2022-12-29T22:04:24.503Z,100659.03
2022-12-29T22:07:11.384Z,100659.16
2022-12-29T22:09:56.617Z,100661.59
2022-12-29T22:12:41.895Z,100656.03
2022-12-29T22:15:09.394Z,100655.03
2022-12-29T22:17:38.114Z,100667.56
2022-12-29T22:20:06.640Z,100670.16
2022-12-29T22:22:34.867Z,100666.25
2022-12-29T22:25:02.989Z,100669.63
2022-12-29T22:27:29.866Z,100672.09
2022-12-29T22:29:56.812Z,100675.19
2022-12-29T22:32:24.019Z,100683.91
2022-12-29T22:34:50.892Z,100683.06
2022-12-29T22:37:17.826Z,100695.28
2022-12-29T22:39:46.095Z,100704.03
2022-12-29T22:42:12.992Z,100689.56
2022-12-29T22:44:39.858Z,100691.81
2022-12-29T22:47:06.824Z,100691.63
2022-12-29T22:49:33.744Z,100690.06
2022-12-29T22:52:00.688Z,100681.13
2022-12-29T22:54:27.610Z,100690.47
2022-12-29T22:56:55.845Z,100685.78
2022-12-29T22:59:22.777Z,100682.78
2022-12-29T23:01:49.898Z,100668.53
2022-12-29T23:07:04.726Z,100682.69
2022-12-29T23:09:31.732Z,100672.94
2022-12-29T23:11:59.902Z,100678.19
2022-12-29T23:14:26.811Z,100684.44
2022-12-29T23:16:54.125Z,100701.56
2022-12-29T23:19:21.119Z,100697.34
2022-12-29T23:21:48.028Z,100706.47
2022-12-29T23:24:15.007Z,100709.97
2022-12-29T23:26:43.449Z,100712.53
2022-12-29T23:29:13.585Z,100709.47
2022-12-29T23:31:40.765Z,100707.19
2022-12-29T23:34:08.932Z,100708.63
2022-12-29T23:36:36.325Z,100711.31
2022-12-29T23:39:03.814Z,100706.91
2022-12-29T23:41:31.241Z,100711.13
2022-12-29T23:43:58.142Z,100709.38
2022-12-29T23:46:28.476Z,100713.06
2022-12-29T23:48:55.732Z,100715.31
2022-12-29T23:51:22.638Z,100709.69
2022-12-29T23:53:49.554Z,100699.84
2022-12-29T23:56:19.740Z,100707.44
2022-12-29T23:58:46.714Z,100700.38
